sensor_id;sensor_type;location;lat;lon;timestamp;P1;durP1;ratioP1;P2;durP2;ratioP2
71413;SDS011;59226;53.212;5.728;2023-07-08T00:02:36;3.58;;;1.10;;
71413;SDS011;59226;53.212;5.728;2023-07-08T00:05:02;5.50;;;1.47;;
71413;SDS011;59226;53.212;5.728;2023-07-08T00:07:27;3.60;;;1.33;;
71413;SDS011;59226;53.212;5.728;2023-07-08T00:09:52;3.50;;;1.23;;
71413;SDS011;59226;53.212;5.728;2023-07-08T00:12:18;5.83;;;1.27;;
71413;SDS011;59226;53.212;5.728;2023-07-08T00:14:43;5.17;;;1.80;;
71413;SDS011;59226;53.212;5.728;2023-07-08T00:17:10;4.30;;;1.40;;
71413;SDS011;59226;53.212;5.728;2023-07-08T00:19:35;3.45;;;1.38;;
71413;SDS011;59226;53.212;5.728;2023-07-08T00:22:00;4.40;;;1.27;;
71413;SDS011;59226;53.212;5.728;2023-07-08T00:24:26;2.75;;;0.95;;
71413;SDS011;59226;53.212;5.728;2023-07-08T00:26:51;6.00;;;1.57;;
71413;SDS011;59226;53.212;5.728;2023-07-08T00:29:16;4.50;;;1.80;;
71413;SDS011;59226;53.212;5.728;2023-07-08T00:31:42;4.37;;;1.37;;
71413;SDS011;59226;53.212;5.728;2023-07-08T00:34:07;4.17;;;1.30;;
71413;SDS011;59226;53.212;5.728;2023-07-08T00:36:32;4.73;;;1.33;;
71413;SDS011;59226;53.212;5.728;2023-07-08T00:38:58;4.38;;;1.45;;
71413;SDS011;59226;53.212;5.728;2023-07-08T00:41:30;4.77;;;1.23;;
71413;SDS011;59226;53.212;5.728;2023-07-08T00:43:57;3.85;;;1.50;;
71413;SDS011;59226;53.212;5.728;2023-07-08T00:51:35;5.18;;;1.40;;
71413;SDS011;59226;53.212;5.728;2023-07-08T00:54:03;5.50;;;1.60;;
71413;SDS011;59226;53.212;5.728;2023-07-08T00:56:30;4.40;;;1.70;;
71413;SDS011;59226;53.212;5.728;2023-07-08T00:59:11;5.07;;;1.33;;
71413;SDS011;59226;53.212;5.728;2023-07-08T01:01:41;3.88;;;1.40;;
71413;SDS011;59226;53.212;5.728;2023-07-08T01:04:09;4.38;;;1.42;;
71413;SDS011;59226;53.212;5.728;2023-07-08T01:06:36;5.80;;;1.92;;
71413;SDS011;59226;53.212;5.728;2023-07-08T01:09:05;5.05;;;1.40;;
71413;SDS011;59226;53.212;5.728;2023-07-08T01:11:31;3.63;;;1.40;;
71413;SDS011;59226;53.212;5.728;2023-07-08T01:13:57;6.40;;;1.40;;
71413;SDS011;59226;53.212;5.728;2023-07-08T01:16:24;4.43;;;1.60;;
71413;SDS011;59226;53.212;5.728;2023-07-08T01:18:49;4.13;;;1.33;;
71413;SDS011;59226;53.212;5.728;2023-07-08T01:21:34;5.95;;;1.45;;
71413;SDS011;59226;53.212;5.728;2023-07-08T01:24:01;4.88;;;1.70;;
71413;SDS011;59226;53.212;5.728;2023-07-08T01:26:26;3.90;;;1.40;;
71413;SDS011;59226;53.212;5.728;2023-07-08T01:28:52;7.18;;;1.75;;
71413;SDS011;59226;53.212;5.728;2023-07-08T01:31:18;4.07;;;1.15;;
71413;SDS011;59226;53.212;5.728;2023-07-08T01:33:43;5.43;;;1.40;;
71413;SDS011;59226;53.212;5.728;2023-07-08T01:36:10;4.13;;;1.67;;
71413;SDS011;59226;53.212;5.728;2023-07-08T01:38:35;5.05;;;1.40;;
71413;SDS011;59226;53.212;5.728;2023-07-08T01:41:01;3.77;;;1.50;;
71413;SDS011;59226;53.212;5.728;2023-07-08T01:43:26;4.27;;;1.30;;
71413;SDS011;59226;53.212;5.728;2023-07-08T01:45:51;5.73;;;1.20;;
71413;SDS011;59226;53.212;5.728;2023-07-08T01:48:18;6.10;;;1.70;;
71413;SDS011;59226;53.212;5.728;2023-07-08T01:50:46;4.80;;;1.40;;
71413;SDS011;59226;53.212;5.728;2023-07-08T01:53:14;3.65;;;1.45;;
71413;SDS011;59226;53.212;5.728;2023-07-08T01:55:39;4.75;;;1.50;;
71413;SDS011;59226;53.212;5.728;2023-07-08T01:58:05;4.90;;;1.67;;
71413;SDS011;59226;53.212;5.728;2023-07-08T02:00:30;7.10;;;1.60;;
71413;SDS011;59226;53.212;5.728;2023-07-08T02:02:55;4.80;;;1.30;;
71413;SDS011;59226;53.212;5.728;2023-07-08T02:05:20;4.53;;;1.37;;
71413;SDS011;59226;53.212;5.728;2023-07-08T02:07:45;4.60;;;1.40;;
71413;SDS011;59226;53.212;5.728;2023-07-08T02:10:11;3.47;;;1.40;;
71413;SDS011;59226;53.212;5.728;2023-07-08T02:12:36;4.67;;;1.47;;
71413;SDS011;59226;53.212;5.728;2023-07-08T02:15:01;6.50;;;1.77;;
71413;SDS011;59226;53.212;5.728;2023-07-08T02:17:27;3.65;;;1.45;;
71413;SDS011;59226;53.212;5.728;2023-07-08T02:19:55;6.95;;;2.10;;
71413;SDS011;59226;53.212;5.728;2023-07-08T02:22:21;6.17;;;1.30;;
71413;SDS011;59226;53.212;5.728;2023-07-08T02:24:46;3.77;;;1.43;;
71413;SDS011;59226;53.212;5.728;2023-07-08T02:27:11;4.37;;;1.50;;
71413;SDS011;59226;53.212;5.728;2023-07-08T02:29:36;4.37;;;1.20;;
71413;SDS011;59226;53.212;5.728;2023-07-08T02:32:03;4.45;;;1.40;;
71413;SDS011;59226;53.212;5.728;2023-07-08T02:34:29;5.17;;;1.60;;
71413;SDS011;59226;53.212;5.728;2023-07-08T02:36:54;3.80;;;1.47;;
71413;SDS011;59226;53.212;5.728;2023-07-08T02:39:21;4.90;;;1.33;;
71413;SDS011;59226;53.212;5.728;2023-07-08T02:41:46;3.03;;;1.30;;
71413;SDS011;59226;53.212;5.728;2023-07-08T02:44:11;5.33;;;2.13;;
71413;SDS011;59226;53.212;5.728;2023-07-08T02:46:36;3.67;;;1.30;;
71413;SDS011;59226;53.212;5.728;2023-07-08T02:49:02;6.90;;;1.50;;
71413;SDS011;59226;53.212;5.728;2023-07-08T02:51:27;3.53;;;1.33;;
71413;SDS011;59226;53.212;5.728;2023-07-08T02:53:52;5.63;;;1.23;;
71413;SDS011;59226;53.212;5.728;2023-07-08T02:56:17;7.07;;;1.43;;
71413;SDS011;59226;53.212;5.728;2023-07-08T02:58:43;4.80;;;1.70;;
71413;SDS011;59226;53.212;5.728;2023-07-08T03:01:08;6.03;;;1.70;;
71413;SDS011;59226;53.212;5.728;2023-07-08T03:03:33;4.00;;;1.70;;
71413;SDS011;59226;53.212;5.728;2023-07-08T03:06:01;4.43;;;1.67;;
71413;SDS011;59226;53.212;5.728;2023-07-08T03:08:27;4.50;;;1.47;;
71413;SDS011;59226;53.212;5.728;2023-07-08T03:10:56;5.85;;;1.55;;
71413;SDS011;59226;53.212;5.728;2023-07-08T03:13:22;4.72;;;1.67;;
71413;SDS011;59226;53.212;5.728;2023-07-08T03:15:47;4.67;;;1.60;;
71413;SDS011;59226;53.212;5.728;2023-07-08T03:18:12;6.13;;;1.80;;
71413;SDS011;59226;53.212;5.728;2023-07-08T03:20:41;4.57;;;1.80;;
71413;SDS011;59226;53.212;5.728;2023-07-08T03:23:06;3.70;;;1.38;;
71413;SDS011;59226;53.212;5.728;2023-07-08T03:25:31;8.10;;;1.80;;
71413;SDS011;59226;53.212;5.728;2023-07-08T03:27:56;4.27;;;1.83;;
71413;SDS011;59226;53.212;5.728;2023-07-08T03:30:22;4.97;;;1.60;;
71413;SDS011;59226;53.212;5.728;2023-07-08T03:32:47;4.68;;;1.63;;
71413;SDS011;59226;53.212;5.728;2023-07-08T03:35:13;4.20;;;1.63;;
71413;SDS011;59226;53.212;5.728;2023-07-08T03:37:38;4.53;;;1.47;;
71413;SDS011;59226;53.212;5.728;2023-07-08T03:40:03;5.17;;;1.60;;
71413;SDS011;59226;53.212;5.728;2023-07-08T03:42:29;4.63;;;1.70;;
71413;SDS011;59226;53.212;5.728;2023-07-08T03:44:54;6.83;;;2.00;;
71413;SDS011;59226;53.212;5.728;2023-07-08T03:47:19;4.43;;;1.60;;
71413;SDS011;59226;53.212;5.728;2023-07-08T03:49:44;4.53;;;1.63;;
71413;SDS011;59226;53.212;5.728;2023-07-08T03:52:12;4.03;;;1.57;;
71413;SDS011;59226;53.212;5.728;2023-07-08T03:54:39;5.65;;;1.70;;
71413;SDS011;59226;53.212;5.728;2023-07-08T03:57:05;6.13;;;2.03;;
71413;SDS011;59226;53.212;5.728;2023-07-08T03:59:30;4.90;;;1.83;;
71413;SDS011;59226;53.212;5.728;2023-07-08T04:01:55;5.00;;;1.63;;
71413;SDS011;59226;53.212;5.728;2023-07-08T04:04:20;3.80;;;1.47;;
71413;SDS011;59226;53.212;5.728;2023-07-08T04:06:46;5.15;;;1.60;;
71413;SDS011;59226;53.212;5.728;2023-07-08T04:09:12;3.67;;;1.33;;
71413;SDS011;59226;53.212;5.728;2023-07-08T04:11:37;6.73;;;1.73;;
71413;SDS011;59226;53.212;5.728;2023-07-08T04:14:02;4.20;;;1.40;;
71413;SDS011;59226;53.212;5.728;2023-07-08T04:16:28;7.07;;;2.10;;
71413;SDS011;59226;53.212;5.728;2023-07-08T04:18:55;5.97;;;1.83;;
71413;SDS011;59226;53.212;5.728;2023-07-08T04:21:20;5.10;;;2.15;;
71413;SDS011;59226;53.212;5.728;2023-07-08T04:23:46;6.13;;;1.67;;
71413;SDS011;59226;53.212;5.728;2023-07-08T04:26:11;4.77;;;1.90;;
71413;SDS011;59226;53.212;5.728;2023-07-08T04:28:37;3.33;;;1.60;;
71413;SDS011;59226;53.212;5.728;2023-07-08T04:31:02;4.63;;;1.60;;
71413;SDS011;59226;53.212;5.728;2023-07-08T04:33:28;8.45;;;2.30;;
71413;SDS011;59226;53.212;5.728;2023-07-08T04:35:54;4.03;;;1.63;;
71413;SDS011;59226;53.212;5.728;2023-07-08T04:38:21;4.13;;;1.50;;
71413;SDS011;59226;53.212;5.728;2023-07-08T04:40:47;4.85;;;1.60;;
71413;SDS011;59226;53.212;5.728;2023-07-08T04:43:13;4.07;;;1.60;;
71413;SDS011;59226;53.212;5.728;2023-07-08T04:45:41;4.63;;;1.63;;
71413;SDS011;59226;53.212;5.728;2023-07-08T04:48:08;5.43;;;1.95;;
71413;SDS011;59226;53.212;5.728;2023-07-08T04:50:41;7.57;;;1.83;;
71413;SDS011;59226;53.212;5.728;2023-07-08T04:53:06;4.88;;;1.60;;
71413;SDS011;59226;53.212;5.728;2023-07-08T04:55:31;3.63;;;1.37;;
71413;SDS011;59226;53.212;5.728;2023-07-08T04:57:56;4.50;;;1.60;;
71413;SDS011;59226;53.212;5.728;2023-07-08T05:00:22;5.03;;;1.80;;
71413;SDS011;59226;53.212;5.728;2023-07-08T05:02:47;4.50;;;1.83;;
71413;SDS011;59226;53.212;5.728;2023-07-08T05:05:13;5.47;;;2.00;;
71413;SDS011;59226;53.212;5.728;2023-07-08T05:07:38;6.23;;;1.50;;
71413;SDS011;59226;53.212;5.728;2023-07-08T05:10:03;4.57;;;1.70;;
71413;SDS011;59226;53.212;5.728;2023-07-08T05:12:29;4.80;;;1.90;;
71413;SDS011;59226;53.212;5.728;2023-07-08T05:14:54;5.23;;;1.50;;
71413;SDS011;59226;53.212;5.728;2023-07-08T05:17:19;5.67;;;1.80;;
71413;SDS011;59226;53.212;5.728;2023-07-08T05:19:44;5.73;;;1.83;;
71413;SDS011;59226;53.212;5.728;2023-07-08T05:22:11;4.55;;;1.77;;
71413;SDS011;59226;53.212;5.728;2023-07-08T05:24:36;4.30;;;1.70;;
71413;SDS011;59226;53.212;5.728;2023-07-08T05:27:02;5.65;;;2.00;;
71413;SDS011;59226;53.212;5.728;2023-07-08T05:29:28;5.70;;;2.00;;
71413;SDS011;59226;53.212;5.728;2023-07-08T05:31:53;5.30;;;1.80;;
71413;SDS011;59226;53.212;5.728;2023-07-08T05:34:18;4.57;;;1.83;;
71413;SDS011;59226;53.212;5.728;2023-07-08T05:36:43;6.33;;;1.77;;
71413;SDS011;59226;53.212;5.728;2023-07-08T05:39:09;7.57;;;1.60;;
71413;SDS011;59226;53.212;5.728;2023-07-08T05:41:34;5.57;;;2.23;;
71413;SDS011;59226;53.212;5.728;2023-07-08T05:43:59;4.07;;;1.53;;
71413;SDS011;59226;53.212;5.728;2023-07-08T05:46:24;4.47;;;1.70;;
71413;SDS011;59226;53.212;5.728;2023-07-08T05:48:50;3.83;;;1.50;;
71413;SDS011;59226;53.212;5.728;2023-07-08T05:51:16;4.80;;;1.80;;
71413;SDS011;59226;53.212;5.728;2023-07-08T05:53:41;4.83;;;1.60;;
71413;SDS011;59226;53.212;5.728;2023-07-08T05:56:06;4.17;;;1.67;;
71413;SDS011;59226;53.212;5.728;2023-07-08T05:58:31;6.63;;;1.80;;
71413;SDS011;59226;53.212;5.728;2023-07-08T06:00:57;5.80;;;1.90;;
71413;SDS011;59226;53.212;5.728;2023-07-08T06:03:23;4.95;;;1.70;;
71413;SDS011;59226;53.212;5.728;2023-07-08T06:05:48;4.50;;;1.70;;
71413;SDS011;59226;53.212;5.728;2023-07-08T06:08:14;6.22;;;1.90;;
71413;SDS011;59226;53.212;5.728;2023-07-08T06:10:43;4.70;;;1.63;;
71413;SDS011;59226;53.212;5.728;2023-07-08T06:13:09;3.40;;;1.48;;
71413;SDS011;59226;53.212;5.728;2023-07-08T06:15:34;4.87;;;1.87;;
71413;SDS011;59226;53.212;5.728;2023-07-08T06:17:59;7.00;;;2.00;;
71413;SDS011;59226;53.212;5.728;2023-07-08T06:20:27;3.90;;;1.60;;
71413;SDS011;59226;53.212;5.728;2023-07-08T06:22:52;3.50;;;1.47;;
71413;SDS011;59226;53.212;5.728;2023-07-08T06:25:17;4.13;;;1.50;;
71413;SDS011;59226;53.212;5.728;2023-07-08T06:27:43;5.27;;;1.67;;
71413;SDS011;59226;53.212;5.728;2023-07-08T06:30:08;4.50;;;1.77;;
71413;SDS011;59226;53.212;5.728;2023-07-08T06:32:33;4.13;;;1.40;;
71413;SDS011;59226;53.212;5.728;2023-07-08T06:34:59;4.80;;;1.40;;
71413;SDS011;59226;53.212;5.728;2023-07-08T06:37:24;4.33;;;1.50;;
71413;SDS011;59226;53.212;5.728;2023-07-08T06:39:49;6.03;;;1.60;;
71413;SDS011;59226;53.212;5.728;2023-07-08T06:42:14;3.83;;;1.40;;
71413;SDS011;59226;53.212;5.728;2023-07-08T06:44:40;3.43;;;1.47;;
71413;SDS011;59226;53.212;5.728;2023-07-08T06:47:06;5.20;;;1.30;;
71413;SDS011;59226;53.212;5.728;2023-07-08T06:49:32;4.90;;;1.80;;
71413;SDS011;59226;53.212;5.728;2023-07-08T06:51:57;5.00;;;1.70;;
71413;SDS011;59226;53.212;5.728;2023-07-08T06:54:24;3.65;;;1.58;;
71413;SDS011;59226;53.212;5.728;2023-07-08T06:56:50;4.25;;;1.63;;
71413;SDS011;59226;53.212;5.728;2023-07-08T06:59:15;4.20;;;1.37;;
71413;SDS011;59226;53.212;5.728;2023-07-08T07:01:40;5.17;;;1.40;;
71413;SDS011;59226;53.212;5.728;2023-07-08T07:04:06;3.43;;;1.70;;
71413;SDS011;59226;53.212;5.728;2023-07-08T07:06:31;3.97;;;1.30;;
71413;SDS011;59226;53.212;5.728;2023-07-08T07:08:56;7.13;;;1.50;;
71413;SDS011;59226;53.212;5.728;2023-07-08T07:11:21;3.27;;;1.10;;
71413;SDS011;59226;53.212;5.728;2023-07-08T07:13:47;7.80;;;1.53;;
71413;SDS011;59226;53.212;5.728;2023-07-08T07:16:12;3.60;;;1.40;;
71413;SDS011;59226;53.212;5.728;2023-07-08T07:18:37;4.07;;;1.57;;
71413;SDS011;59226;53.212;5.728;2023-07-08T07:21:02;3.63;;;1.30;;
71413;SDS011;59226;53.212;5.728;2023-07-08T07:23:28;3.73;;;1.40;;
71413;SDS011;59226;53.212;5.728;2023-07-08T07:25:53;2.93;;;1.27;;
71413;SDS011;59226;53.212;5.728;2023-07-08T07:28:19;4.75;;;1.90;;
71413;SDS011;59226;53.212;5.728;2023-07-08T07:30:44;4.27;;;1.50;;
71413;SDS011;59226;53.212;5.728;2023-07-08T07:33:10;5.10;;;1.50;;
71413;SDS011;59226;53.212;5.728;2023-07-08T07:35:35;3.73;;;1.30;;
71413;SDS011;59226;53.212;5.728;2023-07-08T07:38:01;5.17;;;1.83;;
71413;SDS011;59226;53.212;5.728;2023-07-08T07:40:26;4.70;;;1.70;;
71413;SDS011;59226;53.212;5.728;2023-07-08T07:42:51;2.90;;;1.20;;
71413;SDS011;59226;53.212;5.728;2023-07-08T07:45:16;2.97;;;1.20;;
71413;SDS011;59226;53.212;5.728;2023-07-08T07:47:42;4.03;;;1.50;;
71413;SDS011;59226;53.212;5.728;2023-07-08T07:50:07;4.68;;;1.52;;
71413;SDS011;59226;53.212;5.728;2023-07-08T07:52:33;6.03;;;1.97;;
71413;SDS011;59226;53.212;5.728;2023-07-08T07:54:58;4.93;;;1.77;;
71413;SDS011;59226;53.212;5.728;2023-07-08T07:57:23;5.67;;;1.73;;
71413;SDS011;59226;53.212;5.728;2023-07-08T07:59:48;5.80;;;1.30;;
71413;SDS011;59226;53.212;5.728;2023-07-08T08:02:14;6.60;;;1.63;;
71413;SDS011;59226;53.212;5.728;2023-07-08T08:04:39;4.77;;;1.37;;
71413;SDS011;59226;53.212;5.728;2023-07-08T08:07:05;5.23;;;1.60;;
71413;SDS011;59226;53.212;5.728;2023-07-08T08:09:30;4.47;;;1.70;;
71413;SDS011;59226;53.212;5.728;2023-07-08T08:11:55;5.60;;;1.70;;
71413;SDS011;59226;53.212;5.728;2023-07-08T08:14:20;3.77;;;1.70;;
71413;SDS011;59226;53.212;5.728;2023-07-08T08:16:46;4.30;;;1.60;;
71413;SDS011;59226;53.212;5.728;2023-07-08T08:19:11;5.73;;;1.60;;
71413;SDS011;59226;53.212;5.728;2023-07-08T08:21:36;4.83;;;1.43;;
71413;SDS011;59226;53.212;5.728;2023-07-08T08:24:01;4.03;;;1.40;;
71413;SDS011;59226;53.212;5.728;2023-07-08T08:26:27;7.33;;;1.33;;
71413;SDS011;59226;53.212;5.728;2023-07-08T08:28:52;5.13;;;1.40;;
71413;SDS011;59226;53.212;5.728;2023-07-08T08:31:17;5.07;;;1.57;;
71413;SDS011;59226;53.212;5.728;2023-07-08T08:33:43;4.07;;;1.50;;
71413;SDS011;59226;53.212;5.728;2023-07-08T08:36:08;4.03;;;1.53;;
71413;SDS011;59226;53.212;5.728;2023-07-08T08:38:33;4.20;;;1.63;;
71413;SDS011;59226;53.212;5.728;2023-07-08T08:41:02;4.33;;;1.70;;
71413;SDS011;59226;53.212;5.728;2023-07-08T08:43:37;2.70;;;1.38;;
71413;SDS011;59226;53.212;5.728;2023-07-08T08:46:53;6.25;;;1.83;;
71413;SDS011;59226;53.212;5.728;2023-07-08T08:51:21;3.83;;;1.50;;
71413;SDS011;59226;53.212;5.728;2023-07-08T08:53:47;5.57;;;1.70;;
71413;SDS011;59226;53.212;5.728;2023-07-08T08:58:44;3.60;;;1.50;;
71413;SDS011;59226;53.212;5.728;2023-07-08T09:01:13;3.55;;;1.50;;
71413;SDS011;59226;53.212;5.728;2023-07-08T09:06:13;4.90;;;1.73;;
71413;SDS011;59226;53.212;5.728;2023-07-08T09:08:38;4.00;;;1.50;;
71413;SDS011;59226;53.212;5.728;2023-07-08T09:13:49;5.10;;;1.40;;
71413;SDS011;59226;53.212;5.728;2023-07-08T09:21:34;5.33;;;2.10;;
71413;SDS011;59226;53.212;5.728;2023-07-08T09:24:03;3.97;;;1.92;;
71413;SDS011;59226;53.212;5.728;2023-07-08T09:26:30;5.07;;;1.38;;
71413;SDS011;59226;53.212;5.728;2023-07-08T09:28:55;4.45;;;1.80;;
71413;SDS011;59226;53.212;5.728;2023-07-08T09:31:23;4.53;;;1.70;;
71413;SDS011;59226;53.212;5.728;2023-07-08T09:33:50;2.60;;;1.30;;
71413;SDS011;59226;53.212;5.728;2023-07-08T09:36:16;3.53;;;1.48;;
71413;SDS011;59226;53.212;5.728;2023-07-08T09:38:42;5.38;;;2.10;;
71413;SDS011;59226;53.212;5.728;2023-07-08T09:41:07;3.83;;;1.40;;
71413;SDS011;59226;53.212;5.728;2023-07-08T09:43:37;4.07;;;1.57;;
71413;SDS011;59226;53.212;5.728;2023-07-08T09:46:02;3.80;;;1.60;;
71413;SDS011;59226;53.212;5.728;2023-07-08T09:48:29;4.73;;;1.53;;
71413;SDS011;59226;53.212;5.728;2023-07-08T09:50:56;5.28;;;1.60;;
71413;SDS011;59226;53.212;5.728;2023-07-08T09:53:21;4.38;;;1.58;;
71413;SDS011;59226;53.212;5.728;2023-07-08T09:55:47;3.97;;;1.60;;
71413;SDS011;59226;53.212;5.728;2023-07-08T09:58:13;5.05;;;1.83;;
71413;SDS011;59226;53.212;5.728;2023-07-08T10:00:40;3.95;;;1.70;;
71413;SDS011;59226;53.212;5.728;2023-07-08T10:03:48;3.23;;;1.40;;
71413;SDS011;59226;53.212;5.728;2023-07-08T10:05:56;4.40;;;1.60;;
71413;SDS011;59226;53.212;5.728;2023-07-08T10:08:23;3.10;;;1.33;;
71413;SDS011;59226;53.212;5.728;2023-07-08T10:10:57;4.93;;;1.85;;
71413;SDS011;59226;53.212;5.728;2023-07-08T10:13:26;5.03;;;1.70;;
71413;SDS011;59226;53.212;5.728;2023-07-08T10:16:35;5.27;;;2.00;;
71413;SDS011;59226;53.212;5.728;2023-07-08T10:18:42;6.32;;;1.80;;
71413;SDS011;59226;53.212;5.728;2023-07-08T10:26:15;5.78;;;1.50;;
71413;SDS011;59226;53.212;5.728;2023-07-08T10:31:16;6.68;;;1.95;;
71413;SDS011;59226;53.212;5.728;2023-07-08T10:33:50;2.65;;;1.40;;
71413;SDS011;59226;53.212;5.728;2023-07-08T10:38:59;4.28;;;1.60;;
71413;SDS011;59226;53.212;5.728;2023-07-08T10:41:30;3.65;;;1.80;;
71413;SDS011;59226;53.212;5.728;2023-07-08T10:44:05;4.00;;;1.70;;
71413;SDS011;59226;53.212;5.728;2023-07-08T10:46:41;3.42;;;1.40;;
71413;SDS011;59226;53.212;5.728;2023-07-08T10:54:25;5.32;;;1.85;;
71413;SDS011;59226;53.212;5.728;2023-07-08T10:57:09;4.68;;;1.73;;
71413;SDS011;59226;53.212;5.728;2023-07-08T11:10:00;4.32;;;1.73;;
71413;SDS011;59226;53.212;5.728;2023-07-08T11:12:40;4.13;;;1.70;;
71413;SDS011;59226;53.212;5.728;2023-07-08T11:17:37;6.23;;;1.83;;
71413;SDS011;59226;53.212;5.728;2023-07-08T11:22:58;4.03;;;1.88;;
71413;SDS011;59226;53.212;5.728;2023-07-08T11:25:25;5.28;;;1.88;;
71413;SDS011;59226;53.212;5.728;2023-07-08T11:27:53;4.32;;;1.65;;
71413;SDS011;59226;53.212;5.728;2023-07-08T11:30:21;4.90;;;1.93;;
71413;SDS011;59226;53.212;5.728;2023-07-08T11:32:47;5.75;;;2.17;;
71413;SDS011;59226;53.212;5.728;2023-07-08T11:35:16;3.83;;;1.90;;
71413;SDS011;59226;53.212;5.728;2023-07-08T11:37:43;6.20;;;1.90;;
71413;SDS011;59226;53.212;5.728;2023-07-08T11:40:21;4.20;;;1.92;;
71413;SDS011;59226;53.212;5.728;2023-07-08T11:42:50;3.63;;;1.70;;
71413;SDS011;59226;53.212;5.728;2023-07-08T11:45:32;5.03;;;1.90;;
71413;SDS011;59226;53.212;5.728;2023-07-08T11:48:12;4.78;;;1.88;;
71413;SDS011;59226;53.212;5.728;2023-07-08T11:50:40;4.53;;;2.28;;
71413;SDS011;59226;53.212;5.728;2023-07-08T11:53:10;4.43;;;1.83;;
71413;SDS011;59226;53.212;5.728;2023-07-08T11:58:21;4.65;;;2.10;;
71413;SDS011;59226;53.212;5.728;2023-07-08T12:00:51;3.83;;;1.88;;
71413;SDS011;59226;53.212;5.728;2023-07-08T12:03:21;4.75;;;2.03;;
71413;SDS011;59226;53.212;5.728;2023-07-08T12:05:47;4.97;;;2.20;;
71413;SDS011;59226;53.212;5.728;2023-07-08T12:08:17;5.47;;;2.00;;
71413;SDS011;59226;53.212;5.728;2023-07-08T12:10:47;5.88;;;2.40;;
71413;SDS011;59226;53.212;5.728;2023-07-08T12:13:14;5.73;;;2.17;;
71413;SDS011;59226;53.212;5.728;2023-07-08T12:15:39;4.78;;;2.03;;
71413;SDS011;59226;53.212;5.728;2023-07-08T12:20:34;4.32;;;2.10;;
71413;SDS011;59226;53.212;5.728;2023-07-08T12:23:00;5.45;;;2.28;;
71413;SDS011;59226;53.212;5.728;2023-07-08T12:25:27;3.73;;;1.77;;
71413;SDS011;59226;53.212;5.728;2023-07-08T12:27:53;5.25;;;2.20;;
71413;SDS011;59226;53.212;5.728;2023-07-08T12:30:18;4.53;;;1.90;;
71413;SDS011;59226;53.212;5.728;2023-07-08T12:32:44;5.40;;;2.30;;
71413;SDS011;59226;53.212;5.728;2023-07-08T12:38:14;4.13;;;1.90;;
71413;SDS011;59226;53.212;5.728;2023-07-08T12:40:41;4.93;;;2.35;;
71413;SDS011;59226;53.212;5.728;2023-07-08T12:43:09;4.87;;;2.00;;
71413;SDS011;59226;53.212;5.728;2023-07-08T12:45:34;5.73;;;1.97;;
71413;SDS011;59226;53.212;5.728;2023-07-08T12:47:59;4.93;;;2.00;;
71413;SDS011;59226;53.212;5.728;2023-07-08T12:50:25;6.23;;;2.13;;
71413;SDS011;59226;53.212;5.728;2023-07-08T12:52:50;4.07;;;1.90;;
71413;SDS011;59226;53.212;5.728;2023-07-08T12:55:15;4.73;;;2.10;;
71413;SDS011;59226;53.212;5.728;2023-07-08T12:57:43;5.13;;;2.10;;
71413;SDS011;59226;53.212;5.728;2023-07-08T13:00:14;5.55;;;2.17;;
71413;SDS011;59226;53.212;5.728;2023-07-08T13:02:43;4.60;;;2.00;;
71413;SDS011;59226;53.212;5.728;2023-07-08T13:05:09;6.63;;;2.25;;
71413;SDS011;59226;53.212;5.728;2023-07-08T13:07:37;5.17;;;2.20;;
71413;SDS011;59226;53.212;5.728;2023-07-08T13:10:04;4.63;;;2.20;;
71413;SDS011;59226;53.212;5.728;2023-07-08T13:12:30;6.00;;;2.10;;
71413;SDS011;59226;53.212;5.728;2023-07-08T13:14:56;5.00;;;2.38;;
71413;SDS011;59226;53.212;5.728;2023-07-08T13:17:23;5.47;;;1.85;;
71413;SDS011;59226;53.212;5.728;2023-07-08T13:19:49;5.00;;;2.07;;
71413;SDS011;59226;53.212;5.728;2023-07-08T13:22:18;5.10;;;2.30;;
71413;SDS011;59226;53.212;5.728;2023-07-08T13:24:44;5.87;;;2.23;;
71413;SDS011;59226;53.212;5.728;2023-07-08T13:27:14;10.50;;;2.95;;
71413;SDS011;59226;53.212;5.728;2023-07-08T13:29:41;8.50;;;2.50;;
71413;SDS011;59226;53.212;5.728;2023-07-08T13:32:08;4.40;;;2.10;;
71413;SDS011;59226;53.212;5.728;2023-07-08T13:34:34;5.00;;;2.20;;
71413;SDS011;59226;53.212;5.728;2023-07-08T13:37:00;6.30;;;2.20;;
71413;SDS011;59226;53.212;5.728;2023-07-08T13:39:27;5.90;;;2.22;;
71413;SDS011;59226;53.212;5.728;2023-07-08T13:41:53;5.22;;;2.20;;
71413;SDS011;59226;53.212;5.728;2023-07-08T13:44:19;4.47;;;2.17;;
71413;SDS011;59226;53.212;5.728;2023-07-08T13:49:24;6.82;;;2.47;;
71413;SDS011;59226;53.212;5.728;2023-07-08T13:52:03;5.03;;;2.15;;
71413;SDS011;59226;53.212;5.728;2023-07-08T13:54:33;6.38;;;2.30;;
71413;SDS011;59226;53.212;5.728;2023-07-08T13:57:00;6.95;;;2.60;;
71413;SDS011;59226;53.212;5.728;2023-07-08T13:59:25;5.73;;;2.40;;
71413;SDS011;59226;53.212;5.728;2023-07-08T14:01:54;8.18;;;2.58;;
71413;SDS011;59226;53.212;5.728;2023-07-08T14:04:21;5.33;;;2.50;;
71413;SDS011;59226;53.212;5.728;2023-07-08T14:06:47;5.70;;;2.78;;
71413;SDS011;59226;53.212;5.728;2023-07-08T14:09:14;4.93;;;2.73;;
71413;SDS011;59226;53.212;5.728;2023-07-08T14:11:40;5.60;;;2.80;;
71413;SDS011;59226;53.212;5.728;2023-07-08T14:14:05;4.47;;;2.20;;
71413;SDS011;59226;53.212;5.728;2023-07-08T14:16:31;5.30;;;2.60;;
71413;SDS011;59226;53.212;5.728;2023-07-08T14:18:56;6.17;;;2.70;;
71413;SDS011;59226;53.212;5.728;2023-07-08T14:21:22;5.18;;;2.55;;
71413;SDS011;59226;53.212;5.728;2023-07-08T14:23:47;6.70;;;2.73;;
71413;SDS011;59226;53.212;5.728;2023-07-08T14:26:12;5.00;;;2.43;;
71413;SDS011;59226;53.212;5.728;2023-07-08T14:28:38;5.73;;;2.53;;
71413;SDS011;59226;53.212;5.728;2023-07-08T14:31:04;5.73;;;2.83;;
71413;SDS011;59226;53.212;5.728;2023-07-08T14:33:33;4.68;;;2.50;;
71413;SDS011;59226;53.212;5.728;2023-07-08T14:35:58;9.53;;;2.57;;
71413;SDS011;59226;53.212;5.728;2023-07-08T14:38:23;5.90;;;3.10;;
71413;SDS011;59226;53.212;5.728;2023-07-08T14:40:48;6.20;;;2.80;;
71413;SDS011;59226;53.212;5.728;2023-07-08T14:43:29;6.30;;;2.70;;
71413;SDS011;59226;53.212;5.728;2023-07-08T14:45:56;4.50;;;2.55;;
71413;SDS011;59226;53.212;5.728;2023-07-08T14:48:23;6.82;;;2.47;;
71413;SDS011;59226;53.212;5.728;2023-07-08T14:50:48;4.87;;;2.87;;
71413;SDS011;59226;53.212;5.728;2023-07-08T14:53:14;5.13;;;2.97;;
71413;SDS011;59226;53.212;5.728;2023-07-08T14:55:40;5.10;;;2.70;;
71413;SDS011;59226;53.212;5.728;2023-07-08T14:58:05;5.18;;;3.10;;
71413;SDS011;59226;53.212;5.728;2023-07-08T15:00:31;4.50;;;2.60;;
71413;SDS011;59226;53.212;5.728;2023-07-08T15:02:56;5.00;;;2.67;;
71413;SDS011;59226;53.212;5.728;2023-07-08T15:05:22;5.43;;;2.77;;
71413;SDS011;59226;53.212;5.728;2023-07-08T15:07:52;5.22;;;3.03;;
71413;SDS011;59226;53.212;5.728;2023-07-08T15:10:18;7.60;;;2.75;;
71413;SDS011;59226;53.212;5.728;2023-07-08T15:12:44;5.57;;;2.65;;
71413;SDS011;59226;53.212;5.728;2023-07-08T15:15:21;6.73;;;3.10;;
71413;SDS011;59226;53.212;5.728;2023-07-08T15:17:49;5.30;;;3.05;;
71413;SDS011;59226;53.212;5.728;2023-07-08T15:20:15;5.93;;;3.03;;
71413;SDS011;59226;53.212;5.728;2023-07-08T15:22:43;4.97;;;2.73;;
71413;SDS011;59226;53.212;5.728;2023-07-08T15:25:09;7.25;;;3.28;;
71413;SDS011;59226;53.212;5.728;2023-07-08T15:27:35;5.75;;;2.95;;
71413;SDS011;59226;53.212;5.728;2023-07-08T15:30:00;5.77;;;2.90;;
71413;SDS011;59226;53.212;5.728;2023-07-08T15:32:26;5.90;;;3.13;;
71413;SDS011;59226;53.212;5.728;2023-07-08T15:34:51;9.13;;;3.30;;
71413;SDS011;59226;53.212;5.728;2023-07-08T15:37:16;5.17;;;2.60;;
71413;SDS011;59226;53.212;5.728;2023-07-08T15:39:41;5.80;;;3.10;;
71413;SDS011;59226;53.212;5.728;2023-07-08T15:42:15;6.57;;;3.63;;
71413;SDS011;59226;53.212;5.728;2023-07-08T15:44:41;8.25;;;4.00;;
71413;SDS011;59226;53.212;5.728;2023-07-08T15:47:08;7.50;;;2.87;;
71413;SDS011;59226;53.212;5.728;2023-07-08T15:49:36;5.63;;;3.15;;